createdAt,value
2018-04-06T00:00:42.307Z,6.61
2018-04-06T00:06:33.212Z,6.01
2018-04-06T00:12:24.088Z,6.26
2018-04-06T00:18:15.016Z,7.95
2018-04-06T00:24:05.874Z,6.92
2018-04-06T00:29:56.751Z,6.48
2018-04-06T00:35:47.655Z,5.52
2018-04-06T00:41:38.569Z,5.87
2018-04-06T00:47:29.518Z,4.35
2018-04-06T00:53:20.371Z,5.72
2018-04-06T00:59:11.205Z,5.93
2018-04-06T01:05:02.132Z,5.66
2018-04-06T01:10:53.066Z,5.78
2018-04-06T01:16:43.876Z,5.73
2018-04-06T01:22:34.785Z,6.9
2018-04-06T01:28:25.697Z,6.96
2018-04-06T01:34:16.593Z,7.38
2018-04-06T01:40:07.487Z,7.35
2018-04-06T01:45:58.376Z,8.32
2018-04-06T01:51:49.226Z,6.65
2018-04-06T01:57:40.149Z,7
2018-04-06T02:03:31.067Z,7.44
2018-04-06T02:09:22.022Z,8.34
2018-04-06T02:15:12.814Z,8.56
2018-04-06T02:21:03.701Z,7.6
2018-04-06T02:26:54.593Z,7.64
2018-04-06T02:32:45.536Z,7.12
2018-04-06T02:38:36.390Z,8.66
2018-04-06T02:44:27.263Z,10.59
2018-04-06T02:50:18.148Z,9.76
2018-04-06T02:56:09.025Z,9.65
2018-04-06T03:01:59.923Z,8.91
2018-04-06T03:07:50.882Z,8.77
2018-04-06T03:13:41.686Z,9.75
2018-04-06T03:19:32.602Z,9.1
2018-04-06T03:25:23.513Z,9.22
2018-04-06T03:31:14.374Z,9.26
2018-04-06T03:37:05.268Z,8.41
2018-04-06T03:42:56.164Z,7.38
2018-04-06T03:48:47.064Z,8.05
2018-04-06T03:54:37.927Z,8.01
2018-04-06T04:00:28.806Z,7.99
2018-04-06T04:06:19.702Z,8.34
2018-04-06T04:12:10.603Z,8.18
2018-04-06T04:18:01.501Z,7.94
2018-04-06T04:23:52.368Z,8.5
2018-04-06T04:29:43.284Z,7.54
2018-04-06T04:35:34.220Z,7.63
2018-04-06T04:41:25.043Z,7.59
2018-04-06T04:47:15.939Z,8.12
2018-04-06T04:53:06.817Z,8.26
2018-04-06T04:58:57.722Z,7.93
2018-04-06T05:04:48.637Z,8.2
2018-04-06T05:10:39.586Z,7.59
2018-04-06T05:16:30.401Z,9.63
2018-04-06T05:22:21.360Z,9.06
2018-04-06T05:28:12.201Z,7.71
2018-04-06T05:34:03.114Z,7.62
2018-04-06T05:39:53.946Z,9.08
2018-04-06T05:45:44.833Z,8.95
2018-04-06T05:51:35.733Z,9.9
2018-04-06T05:57:26.652Z,10.25
2018-04-06T06:03:17.499Z,10
2018-04-06T06:09:08.421Z,10.53
2018-04-06T06:14:59.279Z,12.19
2018-04-06T06:20:50.184Z,10.42
2018-04-06T06:26:41.028Z,13.14
2018-04-06T06:32:31.936Z,20.77
2018-04-06T06:38:22.798Z,17.76
2018-04-06T06:44:13.688Z,13.72
2018-04-06T06:50:04.577Z,7.82
2018-04-06T06:55:55.513Z,8.67
2018-04-06T07:01:46.345Z,11.06
2018-04-06T07:07:37.233Z,13.32
2018-04-06T07:13:28.129Z,13
2018-04-06T07:19:19.014Z,12.84
2018-04-06T07:25:09.944Z,13.39
2018-04-06T07:31:00.793Z,12.59
2018-04-06T07:36:51.678Z,14.02
2018-04-06T07:42:42.595Z,13.94
2018-04-06T07:48:33.475Z,16.2
2018-04-06T07:54:24.365Z,17.99
2018-04-06T08:00:15.274Z,17.95
2018-04-06T08:06:06.163Z,18.25
2018-04-06T08:11:57.028Z,20.16
2018-04-06T08:17:47.951Z,21.15
2018-04-06T08:23:38.873Z,20.88
2018-04-06T08:29:29.720Z,19.24
2018-04-06T08:35:20.616Z,20.49
2018-04-06T08:41:11.560Z,20.69
2018-04-06T08:47:02.401Z,18.59
2018-04-06T08:52:53.259Z,18.07
2018-04-06T08:58:44.203Z,16.75
2018-04-06T09:04:35.125Z,15.8
2018-04-06T09:10:25.992Z,17.7
2018-04-06T09:16:16.881Z,19.58
2018-04-06T09:22:07.727Z,17.91
2018-04-06T09:27:58.634Z,18.98
2018-04-06T09:33:49.536Z,18.14
2018-04-06T09:39:40.414Z,21.63
2018-04-06T09:45:31.322Z,21.08
2018-04-06T09:51:22.258Z,22.23
2018-04-06T09:57:13.083Z,21.84
2018-04-06T10:03:03.984Z,19.42
2018-04-06T10:08:54.888Z,19.89
2018-04-06T10:14:45.798Z,18.12
2018-04-06T10:20:36.646Z,20.45
2018-04-06T10:26:27.658Z,19.95
2018-04-06T10:32:18.477Z,19.64
2018-04-06T10:38:09.388Z,19.25
2018-04-06T10:44:00.282Z,17.89
2018-04-06T10:49:51.106Z,19.9
2018-04-06T10:55:42.024Z,20.8
2018-04-06T11:01:32.914Z,18.66
2018-04-06T11:07:23.803Z,19.75
2018-04-06T11:13:14.733Z,13.99
2018-04-06T11:19:05.592Z,17.56
2018-04-06T11:24:56.486Z,14.99
2018-04-06T11:30:47.400Z,14
2018-04-06T11:36:38.257Z,11.69
2018-04-06T11:42:29.195Z,10.42
2018-04-06T11:48:20.083Z,12.03
2018-04-06T11:54:10.992Z,8.01
2018-04-06T12:00:01.913Z,10.84
2018-04-06T12:05:52.745Z,10.26
2018-04-06T12:11:43.688Z,8.9
2018-04-06T12:17:34.525Z,7.19
2018-04-06T12:23:25.438Z,9.18
2018-04-06T12:29:16.309Z,7.29
2018-04-06T12:35:07.259Z,8.22
2018-04-06T12:40:58.114Z,9.09
2018-04-06T12:46:49.064Z,8.54
2018-04-06T12:52:39.934Z,10.77
2018-04-06T12:58:30.876Z,11.2
2018-04-06T13:04:21.707Z,11.81
2018-04-06T13:10:12.614Z,7.28
2018-04-06T13:16:03.524Z,9.49
2018-04-06T13:21:54.458Z,7.34
2018-04-06T13:27:45.364Z,8.51
2018-04-06T13:33:36.202Z,5.76
2018-04-06T13:39:27.088Z,5.82
2018-04-06T13:45:17.988Z,4.93
2018-04-06T13:51:08.941Z,4.53
2018-04-06T13:56:59.779Z,5.04
2018-04-06T14:02:50.691Z,3.82
2018-04-06T14:08:41.582Z,4.29
2018-04-06T14:14:32.486Z,4.5
2018-04-06T14:20:23.409Z,4.21
2018-04-06T14:26:14.277Z,4.58
2018-04-06T14:32:05.170Z,4.59
2018-04-06T14:37:56.048Z,3.74
2018-04-06T14:43:46.994Z,4.15
2018-04-06T14:49:37.895Z,3.76
2018-04-06T14:55:28.772Z,3.96
2018-04-06T15:01:19.666Z,4.19
2018-04-06T15:07:10.536Z,3.46
2018-04-06T15:13:01.504Z,3.33
2018-04-06T15:18:52.338Z,3.36
2018-04-06T15:24:43.224Z,4.54
2018-04-06T15:30:34.158Z,3.39
2018-04-06T15:36:25.045Z,3.64
2018-04-06T15:42:15.968Z,4.59
2018-04-06T15:48:06.839Z,3.92
2018-04-06T15:53:57.770Z,4.19
2018-04-06T15:59:48.697Z,3.22
2018-04-06T16:05:39.562Z,3.3
2018-04-06T16:11:30.441Z,3.91
2018-04-06T16:17:21.299Z,3.8
2018-04-06T16:23:12.207Z,4.13
2018-04-06T16:29:03.097Z,3.75
2018-04-06T16:34:54.055Z,3.92
2018-04-06T16:40:44.950Z,3.91
2018-04-06T16:46:35.794Z,4.07
2018-04-06T16:52:26.732Z,3.85
2018-04-06T16:58:17.657Z,3.78
2018-04-06T17:04:08.505Z,3.95
2018-04-06T17:09:59.375Z,3.99
2018-04-06T17:15:50.337Z,3.6
2018-04-06T17:21:41.198Z,4.11
2018-04-06T17:27:32.081Z,4.79
2018-04-06T17:33:22.981Z,17.58
2018-04-06T17:39:13.867Z,19.97
2018-04-06T17:45:04.779Z,9.51
2018-04-06T17:50:55.697Z,7.87
2018-04-06T17:56:46.593Z,7.91
2018-04-06T18:02:37.497Z,11.38
2018-04-06T18:08:28.380Z,13.14
2018-04-06T18:14:19.322Z,12.57
2018-04-06T18:20:10.193Z,8.29
2018-04-06T18:26:01.093Z,10.3
2018-04-06T18:31:52.012Z,9.05
2018-04-06T18:37:42.895Z,9.46
2018-04-06T18:43:33.886Z,13.48
2018-04-06T18:49:24.706Z,12.27
2018-04-06T18:55:15.612Z,13.1
2018-04-06T19:01:06.510Z,13.68
2018-04-06T19:06:57.382Z,15.25
2018-04-06T19:12:48.283Z,13.82
2018-04-06T19:18:39.274Z,15.32
2018-04-06T19:24:30.085Z,16.94
2018-04-06T19:30:21.015Z,15.13
2018-04-06T19:36:11.922Z,14.29
2018-04-06T19:42:02.799Z,23.29
2018-04-06T19:47:53.717Z,15.64
2018-04-06T19:53:44.616Z,13.73
2018-04-06T19:59:35.488Z,13.38
2018-04-06T20:05:26.398Z,12.74
2018-04-06T20:11:17.304Z,11.7
2018-04-06T20:17:08.201Z,11.19
2018-04-06T20:22:59.147Z,12.02
2018-04-06T20:28:49.991Z,11
2018-04-06T20:34:40.914Z,12.19
2018-04-06T20:40:31.800Z,11.35
2018-04-06T20:46:22.701Z,10.76
2018-04-06T20:52:13.595Z,11.26
2018-04-06T20:58:04.466Z,17.86
2018-04-06T21:03:55.370Z,18.19
2018-04-06T21:09:46.306Z,14.76
2018-04-06T21:15:37.164Z,13.08
2018-04-06T21:21:28.080Z,18.8
2018-04-06T21:27:19.000Z,14.32
2018-04-06T21:33:09.889Z,15.3
2018-04-06T21:39:00.767Z,15.96
2018-04-06T21:44:51.707Z,16.12
2018-04-06T21:50:42.580Z,17.07
2018-04-06T21:56:33.464Z,17.74
2018-04-06T22:02:24.374Z,12.97
2018-04-06T22:08:15.261Z,9.52
2018-04-06T22:14:06.162Z,10.42
2018-04-06T22:19:57.064Z,11.5
2018-04-06T22:25:47.968Z,9.96
2018-04-06T22:31:38.883Z,6.96
2018-04-06T22:37:29.818Z,9.57
2018-04-06T22:43:20.710Z,8.94
2018-04-06T22:49:11.557Z,8.6
2018-04-06T22:55:02.438Z,6.63
2018-04-06T23:00:53.339Z,7.03
2018-04-06T23:06:44.259Z,6.56
2018-04-06T23:12:35.136Z,6.06
2018-04-06T23:18:26.086Z,4.41
2018-04-06T23:24:16.952Z,3.49
2018-04-06T23:30:07.827Z,3.77
2018-04-06T23:35:58.753Z,4.93
2018-04-06T23:41:49.690Z,3.86
2018-04-06T23:47:40.565Z,4.51
2018-04-06T23:53:31.440Z,4.85
2018-04-06T23:59:22.343Z,7.21
